createdAt,value
2023-06-29T00:00:07.392Z,13.10
2023-06-29T00:05:23.952Z,13.40
2023-06-29T00:07:51.936Z,13.50
2023-06-29T00:10:20.060Z,14.40
2023-06-29T00:12:48.298Z,12.50
2023-06-29T00:15:16.749Z,12.70
2023-06-29T00:17:48.651Z,13.90
2023-06-29T00:20:16.885Z,13.90
2023-06-29T00:22:58.127Z,13.10
2023-06-29T00:25:26.350Z,13.60
2023-06-29T00:27:54.434Z,12.40
2023-06-29T00:30:22.653Z,12.30
2023-06-29T00:32:50.883Z,12.50
2023-06-29T00:35:19.199Z,13.70
2023-06-29T00:37:47.340Z,12.80
2023-06-29T00:40:15.719Z,13.50
2023-06-29T00:42:44.860Z,13.30
2023-06-29T00:45:12.938Z,12.20
2023-06-29T00:47:41.162Z,12.00
2023-06-29T00:50:10.267Z,11.80
2023-06-29T00:52:38.404Z,12.50
2023-06-29T00:55:08.238Z,11.50
2023-06-29T00:57:40.987Z,11.70
2023-06-29T01:00:12.102Z,11.80
2023-06-29T01:02:44.074Z,11.90
2023-06-29T01:05:15.365Z,11.40
2023-06-29T01:08:06.982Z,11.50
2023-06-29T01:10:37.246Z,10.60
2023-06-29T01:13:08.186Z,10.40
2023-06-29T01:15:38.431Z,11.30
2023-06-29T01:18:20.244Z,10.40
2023-06-29T01:20:50.928Z,10.60
2023-06-29T01:23:26.280Z,10.80
2023-06-29T01:25:56.332Z,10.60
2023-06-29T01:28:30.211Z,10.80
2023-06-29T01:30:58.442Z,11.20
2023-06-29T01:36:50.193Z,11.90
2023-06-29T01:39:24.087Z,10.90
2023-06-29T01:41:54.828Z,12.10
2023-06-29T01:44:22.892Z,11.40
2023-06-29T01:46:53.698Z,11.40
2023-06-29T01:49:22.519Z,10.90
2023-06-29T01:51:50.843Z,10.40
2023-06-29T01:54:18.882Z,11.20
2023-06-29T01:56:47.480Z,11.10
2023-06-29T01:59:15.831Z,12.20
2023-06-29T02:01:44.899Z,10.10
2023-06-29T02:04:14.217Z,10.80
2023-06-29T02:06:42.204Z,11.10
2023-06-29T02:09:11.526Z,10.10
2023-06-29T02:11:39.816Z,10.80
2023-06-29T02:14:08.149Z,10.40
2023-06-29T02:16:36.682Z,10.00
2023-06-29T02:19:04.795Z,9.60
2023-06-29T02:21:35.163Z,9.60
2023-06-29T02:24:05.099Z,10.10
2023-06-29T02:26:33.822Z,9.80
2023-06-29T02:29:02.110Z,9.50
2023-06-29T02:31:31.008Z,9.80
2023-06-29T02:34:00.945Z,9.00
2023-06-29T02:36:29.436Z,9.70
2023-06-29T02:38:57.754Z,9.60
2023-06-29T02:41:25.932Z,9.00
2023-06-29T02:43:54.326Z,9.20
2023-06-29T02:46:23.003Z,9.30
2023-06-29T02:48:52.909Z,8.40
2023-06-29T02:51:21.171Z,8.40
2023-06-29T02:53:50.241Z,8.20
2023-06-29T02:56:18.328Z,7.10
2023-06-29T02:58:46.400Z,6.20
2023-06-29T03:01:20.811Z,5.80
2023-06-29T03:03:49.320Z,5.10
2023-06-29T03:06:17.768Z,5.00
2023-06-29T03:08:47.009Z,5.00
2023-06-29T03:11:15.716Z,4.50
2023-06-29T03:13:43.691Z,4.20
2023-06-29T04:34:37.620Z,3.80
2023-06-29T04:37:06.941Z,4.10
2023-06-29T04:39:35.326Z,4.00
2023-06-29T04:42:04.259Z,4.00
2023-06-29T04:44:33.470Z,3.60
2023-06-29T04:47:02.958Z,4.00
2023-06-29T04:49:38.725Z,3.40
2023-06-29T04:52:07.875Z,3.40
2023-06-29T04:54:36.427Z,3.10
2023-06-29T04:57:04.611Z,3.10
2023-06-29T04:59:32.843Z,2.80
2023-06-29T05:02:01.056Z,2.90
2023-06-29T05:04:30.117Z,2.80
2023-06-29T05:06:58.506Z,3.10
2023-06-29T05:09:26.565Z,3.60
2023-06-29T05:11:54.756Z,3.00
2023-06-29T05:14:23.056Z,3.00
2023-06-29T05:16:51.299Z,3.00
2023-06-29T05:19:19.465Z,3.30
2023-06-29T05:21:47.654Z,3.40
2023-06-29T05:24:17.273Z,2.70
2023-06-29T05:26:47.196Z,2.80
2023-06-29T05:29:15.439Z,3.10
2023-06-29T05:31:43.621Z,2.70
2023-06-29T05:34:11.705Z,3.80
2023-06-29T05:36:39.925Z,3.00
2023-06-29T05:39:09.459Z,2.80
2023-06-29T05:41:39.375Z,2.60
2023-06-29T05:44:07.669Z,2.80
2023-06-29T05:46:38.062Z,3.00
2023-06-29T05:49:07.113Z,2.60
2023-06-29T05:51:35.792Z,2.50
2023-06-29T05:54:05.684Z,2.50
2023-06-29T05:56:33.965Z,2.90
2023-06-29T05:59:28.062Z,2.80
2023-06-29T06:01:56.290Z,2.70
2023-06-29T06:04:24.752Z,2.70
2023-06-29T06:06:53.147Z,2.70
2023-06-29T06:09:21.233Z,2.70
2023-06-29T06:11:49.344Z,2.70
2023-06-29T06:14:17.625Z,2.80
2023-06-29T06:16:45.969Z,2.50
2023-06-29T06:19:14.072Z,2.70
2023-06-29T06:21:42.520Z,2.80
2023-06-29T06:24:11.841Z,2.80
2023-06-29T06:26:40.096Z,2.90
2023-06-29T06:29:08.123Z,3.00
2023-06-29T06:31:36.313Z,2.70
2023-06-29T06:34:04.384Z,2.70
2023-06-29T06:36:33.794Z,2.70
2023-06-29T06:39:02.643Z,2.80
2023-06-29T06:41:30.787Z,2.70
2023-06-29T06:43:58.958Z,2.60
2023-06-29T06:46:27.604Z,2.90
2023-06-29T06:48:55.806Z,2.80
2023-06-29T06:51:24.195Z,2.70
2023-06-29T06:53:52.624Z,2.70
2023-06-29T06:56:21.067Z,2.50
2023-06-29T06:58:49.652Z,2.70
2023-06-29T07:01:18.543Z,2.60
2023-06-29T07:03:47.143Z,2.90
2023-06-29T07:06:15.767Z,2.70
2023-06-29T07:08:44.676Z,3.00
2023-06-29T07:11:12.840Z,2.80
2023-06-29T07:13:40.986Z,3.60
2023-06-29T07:16:09.188Z,3.10
2023-06-29T07:18:38.231Z,2.70
2023-06-29T07:26:09.014Z,3.30
2023-06-29T07:28:37.541Z,3.70
2023-06-29T07:31:05.762Z,3.10
2023-06-29T07:33:36.643Z,3.00
2023-06-29T07:36:06.535Z,3.10
2023-06-29T07:38:35.888Z,3.40
2023-06-29T07:41:06.236Z,3.30
2023-06-29T07:43:34.428Z,3.30
2023-06-29T07:46:03.107Z,3.40
2023-06-29T07:48:31.512Z,3.30
2023-06-29T07:51:25.932Z,3.30
2023-06-29T07:53:54.226Z,3.40
2023-06-29T07:56:22.366Z,8.20
2023-06-29T07:58:53.471Z,3.40
2023-06-29T08:01:21.970Z,3.30
2023-06-29T08:04:00.222Z,3.30
2023-06-29T08:09:01.909Z,3.40
2023-06-29T08:11:30.527Z,3.20
2023-06-29T08:13:59.192Z,3.20
2023-06-29T08:16:27.440Z,3.50
2023-06-29T08:18:55.629Z,4.00
2023-06-29T08:21:23.937Z,3.40
2023-06-29T08:23:52.164Z,3.20
2023-06-29T08:26:20.609Z,3.50
2023-06-29T08:28:48.989Z,4.00
2023-06-29T08:31:17.144Z,3.40
2023-06-29T08:33:45.544Z,3.40
2023-06-29T08:36:14.072Z,3.40
2023-06-29T08:38:47.316Z,2.90
2023-06-29T08:41:17.106Z,3.40
2023-06-29T08:43:45.418Z,3.30
2023-06-29T08:46:13.706Z,2.90
2023-06-29T08:48:45.453Z,3.60
2023-06-29T08:51:17.308Z,3.30
2023-06-29T08:53:46.816Z,3.30
2023-06-29T08:56:15.836Z,3.50
2023-06-29T08:58:44.811Z,3.20
2023-06-29T09:01:13.299Z,3.40
2023-06-29T09:03:42.120Z,3.20
2023-06-29T09:06:10.615Z,3.60
2023-06-29T09:08:39.979Z,3.40
2023-06-29T09:11:08.044Z,3.30
2023-06-29T09:13:36.338Z,3.20
2023-06-29T09:16:05.539Z,3.10
2023-06-29T09:18:34.111Z,3.60
2023-06-29T09:21:04.784Z,3.60
2023-06-29T09:23:34.525Z,3.80
2023-06-29T09:26:05.807Z,3.60
2023-06-29T09:28:36.702Z,3.40
2023-06-29T09:31:10.164Z,3.60
2023-06-29T09:33:39.355Z,3.50
2023-06-29T09:36:09.660Z,3.40
2023-06-29T09:38:38.909Z,3.70
2023-06-29T09:41:08.248Z,3.90
2023-06-29T09:43:39.169Z,3.40
2023-06-29T09:46:10.512Z,3.10
2023-06-29T09:51:25.132Z,3.10
2023-06-29T09:53:53.743Z,3.50
2023-06-29T09:56:22.987Z,3.10
2023-06-29T09:58:53.469Z,3.10
2023-06-29T10:01:23.904Z,3.30
2023-06-29T10:03:51.920Z,3.50
2023-06-29T10:06:26.462Z,3.00
2023-06-29T10:08:56.798Z,2.80
2023-06-29T10:11:30.550Z,2.70
2023-06-29T10:14:02.880Z,2.70
2023-06-29T10:16:36.975Z,2.90
2023-06-29T10:19:32.868Z,2.80
2023-06-29T10:22:06.583Z,2.60
2023-06-29T10:24:46.332Z,2.70
2023-06-29T10:27:17.209Z,2.70
2023-06-29T10:29:45.645Z,2.80
2023-06-29T10:32:33.315Z,2.50
2023-06-29T10:35:03.918Z,2.40
2023-06-29T10:37:33.439Z,2.80
2023-06-29T10:40:02.746Z,2.50
2023-06-29T10:42:31.190Z,2.50
2023-06-29T10:44:59.364Z,2.60
2023-06-29T10:47:29.587Z,2.60
2023-06-29T10:50:10.204Z,2.50
2023-06-29T10:52:39.853Z,2.40
2023-06-29T10:55:24.858Z,2.60
2023-06-29T10:58:00.172Z,2.50
2023-06-29T11:04:41.367Z,2.70
2023-06-29T11:07:12.267Z,2.60
2023-06-29T11:09:40.238Z,2.40
2023-06-29T11:12:09.253Z,2.50
2023-06-29T11:14:39.456Z,2.00
2023-06-29T11:17:09.505Z,2.80
2023-06-29T11:19:43.943Z,2.70
2023-06-29T11:22:12.136Z,2.40
2023-06-29T11:24:42.778Z,2.30
2023-06-29T11:27:11.533Z,2.20
2023-06-29T11:29:39.492Z,2.20
2023-06-29T11:32:14.127Z,2.20
2023-06-29T11:34:42.484Z,1.90
2023-06-29T11:39:59.334Z,2.00
2023-06-29T11:42:27.598Z,1.80
2023-06-29T11:45:06.010Z,2.10
2023-06-29T11:47:34.444Z,2.10
2023-06-29T11:50:04.497Z,2.90
2023-06-29T11:52:33.468Z,2.10
2023-06-29T11:55:04.012Z,2.70
2023-06-29T11:57:35.602Z,17.30
2023-06-29T12:00:09.013Z,5.70
2023-06-29T12:02:44.068Z,8.80
2023-06-29T12:05:12.492Z,3.50
2023-06-29T12:07:45.753Z,27.50
2023-06-29T12:10:24.371Z,3.10
2023-06-29T12:13:00.016Z,16.70
2023-06-29T12:15:29.656Z,2.60
2023-06-29T12:18:11.865Z,12.00
2023-06-29T12:20:42.659Z,3.40
2023-06-29T12:23:13.851Z,2.80
2023-06-29T12:25:51.333Z,2.20
2023-06-29T12:28:20.300Z,3.00
2023-06-29T12:30:48.889Z,2.40
2023-06-29T12:33:17.559Z,2.40
2023-06-29T12:35:45.696Z,2.40
2023-06-29T12:38:14.166Z,2.30
2023-06-29T12:40:42.369Z,2.40
2023-06-29T12:43:10.815Z,2.30
2023-06-29T12:45:38.999Z,2.70
2023-06-29T12:48:07.546Z,2.50
2023-06-29T12:50:36.596Z,2.50
2023-06-29T12:53:04.812Z,2.40
2023-06-29T12:55:32.816Z,2.20
2023-06-29T12:58:01.152Z,2.50
2023-06-29T13:00:29.335Z,2.60
2023-06-29T13:02:58.761Z,2.60
2023-06-29T13:05:27.055Z,2.60
2023-06-29T13:07:55.314Z,2.30
2023-06-29T13:10:23.421Z,2.20
2023-06-29T13:12:51.496Z,2.30
2023-06-29T13:15:19.533Z,2.30
2023-06-29T13:17:47.774Z,2.20
2023-06-29T13:20:16.029Z,2.20
2023-06-29T13:22:44.430Z,2.40
2023-06-29T13:25:13.279Z,2.40
2023-06-29T13:27:42.678Z,2.50
2023-06-29T13:30:11.456Z,2.20
2023-06-29T13:32:39.765Z,2.60
2023-06-29T13:35:08.256Z,2.10
2023-06-29T13:37:36.501Z,2.30
2023-06-29T13:40:05.476Z,2.00
2023-06-29T13:42:33.777Z,2.10
2023-06-29T13:45:03.067Z,2.30
2023-06-29T13:47:31.388Z,2.10
2023-06-29T13:49:59.410Z,2.20
2023-06-29T13:52:27.414Z,2.20
2023-06-29T13:54:55.894Z,2.60
2023-06-29T13:57:25.566Z,2.50
2023-06-29T13:59:53.754Z,2.00
2023-06-29T14:02:21.775Z,2.40
2023-06-29T14:04:50.839Z,2.20
2023-06-29T14:07:23.209Z,2.30
2023-06-29T14:09:51.750Z,2.30
2023-06-29T14:12:19.866Z,1.90
2023-06-29T14:14:50.388Z,2.10
2023-06-29T14:17:20.467Z,3.10
2023-06-29T14:19:54.047Z,2.00
2023-06-29T14:22:22.594Z,2.40
2023-06-29T14:24:51.037Z,2.00
2023-06-29T14:27:20.172Z,2.10
2023-06-29T14:29:48.439Z,2.10
2023-06-29T14:32:16.703Z,2.20
2023-06-29T14:34:49.061Z,2.30
2023-06-29T14:37:20.017Z,2.20
2023-06-29T14:39:48.517Z,2.10
2023-06-29T14:42:16.737Z,2.20
2023-06-29T14:44:45.873Z,2.30
2023-06-29T14:47:14.885Z,2.10
2023-06-29T14:49:43.824Z,2.30
2023-06-29T14:52:12.369Z,2.20
2023-06-29T14:54:41.218Z,2.20
2023-06-29T14:57:10.148Z,2.30
2023-06-29T14:59:38.381Z,2.30
2023-06-29T15:02:06.630Z,1.90
2023-06-29T15:04:34.809Z,1.90
2023-06-29T15:07:03.525Z,2.00
2023-06-29T15:09:32.084Z,2.20
2023-06-29T15:12:00.518Z,1.90
2023-06-29T15:14:29.384Z,2.10
2023-06-29T15:16:57.372Z,1.90
2023-06-29T15:19:26.336Z,2.00
2023-06-29T15:22:12.031Z,2.00
2023-06-29T15:24:40.428Z,2.30
2023-06-29T15:27:08.766Z,1.60
2023-06-29T15:29:37.416Z,2.00
2023-06-29T15:32:06.607Z,2.00
2023-06-29T15:34:34.969Z,2.20
2023-06-29T15:37:04.414Z,2.10
2023-06-29T15:39:33.387Z,2.00
2023-06-29T15:42:02.676Z,2.10
2023-06-29T15:44:32.691Z,1.90
2023-06-29T15:47:00.892Z,2.00
2023-06-29T15:49:29.080Z,1.90
2023-06-29T15:51:57.310Z,2.10
2023-06-29T15:54:25.515Z,1.90
2023-06-29T15:56:53.946Z,2.10
2023-06-29T15:59:22.125Z,2.20
2023-06-29T16:01:51.462Z,2.00
2023-06-29T16:04:19.669Z,2.00
2023-06-29T16:06:48.041Z,1.90
2023-06-29T16:09:16.996Z,2.20
2023-06-29T16:11:45.196Z,2.00
2023-06-29T16:14:13.630Z,2.30
2023-06-29T16:16:42.008Z,2.10
2023-06-29T16:19:16.173Z,2.40
2023-06-29T16:21:46.455Z,2.10
2023-06-29T16:24:14.876Z,2.40
2023-06-29T16:26:43.168Z,2.10
2023-06-29T16:29:12.558Z,2.20
2023-06-29T16:31:42.689Z,1.80
2023-06-29T16:34:14.206Z,2.40
2023-06-29T16:36:42.371Z,1.80
2023-06-29T16:39:10.517Z,2.10
2023-06-29T16:41:40.598Z,2.10
2023-06-29T16:44:09.179Z,2.10
2023-06-29T16:46:39.183Z,2.40
2023-06-29T16:49:07.988Z,2.10
2023-06-29T16:51:37.187Z,2.00
2023-06-29T16:54:05.508Z,2.10
2023-06-29T16:56:33.606Z,2.20
2023-06-29T16:59:01.655Z,2.40
2023-06-29T17:01:29.780Z,2.20
2023-06-29T17:03:58.257Z,2.10
2023-06-29T17:06:26.313Z,2.10
2023-06-29T17:08:54.431Z,2.80
2023-06-29T17:11:22.499Z,2.40
2023-06-29T17:13:51.871Z,2.30
2023-06-29T17:16:20.119Z,2.40
2023-06-29T17:18:48.894Z,2.40
2023-06-29T17:21:18.545Z,3.10
2023-06-29T17:23:46.931Z,3.10
2023-06-29T17:26:15.059Z,3.00
2023-06-29T17:28:43.216Z,3.40
2023-06-29T17:31:11.660Z,3.00
2023-06-29T17:33:53.516Z,3.00
2023-06-29T17:36:24.380Z,3.00
2023-06-29T17:38:53.149Z,2.80
2023-06-29T17:41:21.920Z,2.90
2023-06-29T17:43:50.268Z,2.50
2023-06-29T17:46:18.675Z,3.20
2023-06-29T17:48:48.335Z,2.40
2023-06-29T17:51:18.838Z,2.50
2023-06-29T17:53:47.967Z,2.60
2023-06-29T17:56:17.194Z,2.10
2023-06-29T17:58:45.363Z,2.20
2023-06-29T18:01:15.443Z,2.00
2023-06-29T18:03:43.897Z,1.60
2023-06-29T18:06:13.282Z,1.70
2023-06-29T18:08:41.956Z,1.50
2023-06-29T18:11:09.992Z,1.20
2023-06-29T18:13:38.347Z,1.40
2023-06-29T18:16:06.603Z,1.40
2023-06-29T18:18:35.225Z,1.50
2023-06-29T18:21:04.800Z,1.40
2023-06-29T18:23:32.974Z,1.40
2023-06-29T18:26:02.503Z,1.40
2023-06-29T18:28:30.639Z,1.40
2023-06-29T18:30:58.782Z,1.40
2023-06-29T18:33:27.021Z,1.40
2023-06-29T18:35:55.179Z,1.40
2023-06-29T18:38:23.678Z,1.40
2023-06-29T18:40:52.134Z,1.40
2023-06-29T18:43:20.614Z,1.60
2023-06-29T18:45:50.681Z,1.40
2023-06-29T18:48:18.663Z,1.60
2023-06-29T18:50:48.193Z,1.50
2023-06-29T18:53:16.202Z,1.40
2023-06-29T18:55:44.825Z,1.70
2023-06-29T18:58:13.184Z,1.40
2023-06-29T19:04:56.341Z,1.50
2023-06-29T19:07:23.083Z,2.00
2023-06-29T19:09:49.871Z,1.70
2023-06-29T19:12:16.599Z,1.70
2023-06-29T19:14:43.415Z,1.70
2023-06-29T19:17:10.357Z,1.70
2023-06-29T19:19:37.201Z,2.10
2023-06-29T19:22:04.057Z,2.00
2023-06-29T19:24:30.663Z,1.90
2023-06-29T19:26:57.782Z,1.90
2023-06-29T19:29:24.760Z,1.90
2023-06-29T19:31:51.686Z,2.00
2023-06-29T19:34:18.438Z,2.10
2023-06-29T19:36:47.432Z,1.80
2023-06-29T19:39:16.218Z,2.10
2023-06-29T19:41:43.543Z,1.80
2023-06-29T19:44:10.187Z,2.10
2023-06-29T19:46:39.482Z,1.90
2023-06-29T19:49:06.337Z,1.90
2023-06-29T19:51:34.427Z,2.20
2023-06-29T19:54:01.350Z,2.40
2023-06-29T19:56:28.885Z,2.10
2023-06-29T19:58:56.047Z,7.20
2023-06-29T20:01:23.116Z,2.40
2023-06-29T20:03:50.136Z,2.50
2023-06-29T20:06:16.883Z,2.10
2023-06-29T20:08:43.659Z,2.50
2023-06-29T20:11:10.255Z,2.40
2023-06-29T20:13:36.854Z,7.30
2023-06-29T20:16:03.686Z,5.70
2023-06-29T20:18:30.341Z,5.80
2023-06-29T20:20:57.033Z,2.10
2023-06-29T20:23:23.649Z,2.40
2023-06-29T20:25:51.326Z,6.40
2023-06-29T20:28:17.800Z,3.20
2023-06-29T20:30:44.518Z,2.40
2023-06-29T20:33:11.679Z,5.40
2023-06-29T20:35:38.339Z,22.70
2023-06-29T20:38:04.894Z,7.30
2023-06-29T20:40:31.984Z,2.90
2023-06-29T20:42:59.385Z,11.60
2023-06-29T20:45:26.441Z,7.20
2023-06-29T20:47:53.652Z,3.10
2023-06-29T20:50:20.367Z,2.90
2023-06-29T20:52:47.580Z,4.00
2023-06-29T20:55:14.623Z,2.90
2023-06-29T20:57:41.300Z,4.10
2023-06-29T21:00:11.956Z,4.80
2023-06-29T21:02:39.924Z,2.50
2023-06-29T21:05:07.163Z,2.80
2023-06-29T21:07:34.298Z,2.70
2023-06-29T21:10:01.003Z,2.60
2023-06-29T21:12:27.958Z,2.60
2023-06-29T21:14:55.331Z,3.10
2023-06-29T21:17:22.552Z,2.50
2023-06-29T21:19:49.929Z,2.60
2023-06-29T21:22:18.244Z,2.40
2023-06-29T21:24:46.156Z,3.30
2023-06-29T21:27:18.008Z,2.50
2023-06-29T21:29:47.606Z,2.80
2023-06-29T21:32:15.614Z,2.50
2023-06-29T21:34:43.634Z,2.90
2023-06-29T21:37:11.374Z,3.00
2023-06-29T21:39:39.421Z,3.10
2023-06-29T21:42:07.047Z,3.00
2023-06-29T21:44:33.836Z,2.90
2023-06-29T21:47:01.745Z,2.90
2023-06-29T21:49:28.789Z,2.90
2023-06-29T21:51:55.902Z,2.50
2023-06-29T21:54:22.961Z,3.00
2023-06-29T21:56:50.432Z,2.60
2023-06-29T21:59:17.926Z,2.70
2023-06-29T22:01:45.095Z,2.80
2023-06-29T22:04:12.733Z,2.70
2023-06-29T22:06:40.583Z,3.00
2023-06-29T22:09:07.417Z,3.10
2023-06-29T22:11:34.261Z,3.10
2023-06-29T22:14:01.430Z,3.10
2023-06-29T22:16:28.611Z,3.30
2023-06-29T22:18:56.168Z,3.30
2023-06-29T22:21:24.596Z,3.10
2023-06-29T22:23:52.877Z,3.40
2023-06-29T22:26:19.912Z,3.40
2023-06-29T22:28:47.690Z,3.10
2023-06-29T22:31:17.501Z,3.00
2023-06-29T22:33:44.936Z,3.20
2023-06-29T22:36:12.374Z,3.20
2023-06-29T22:38:40.995Z,3.10
2023-06-29T22:41:08.347Z,2.90
2023-06-29T22:43:35.349Z,3.00
2023-06-29T22:46:02.597Z,3.60
2023-06-29T22:48:29.592Z,3.50
2023-06-29T22:50:56.840Z,3.30
2023-06-29T22:53:23.851Z,3.10
2023-06-29T22:55:50.688Z,3.00
2023-06-29T22:58:24.653Z,3.00
2023-06-29T23:00:55.479Z,3.10
2023-06-29T23:03:23.623Z,3.10
2023-06-29T23:05:50.733Z,3.00
2023-06-29T23:08:17.682Z,3.00
2023-06-29T23:10:47.018Z,3.60
2023-06-29T23:13:17.521Z,3.30
2023-06-29T23:15:45.958Z,3.80
2023-06-29T23:18:13.783Z,3.20
2023-06-29T23:20:45.258Z,3.10
2023-06-29T23:23:13.547Z,3.40
2023-06-29T23:25:43.864Z,3.00
2023-06-29T23:28:11.050Z,2.90
2023-06-29T23:30:40.431Z,2.90
2023-06-29T23:33:08.736Z,3.40
2023-06-29T23:35:35.882Z,3.60
2023-06-29T23:38:02.574Z,3.50
2023-06-29T23:40:31.211Z,3.80
2023-06-29T23:42:58.559Z,3.50
2023-06-29T23:45:25.933Z,3.50
2023-06-29T23:47:52.560Z,4.00
2023-06-29T23:50:19.476Z,3.30
2023-06-29T23:52:47.133Z,3.40
2023-06-29T23:55:13.897Z,3.40
2023-06-29T23:57:40.975Z,3.40
